N714DF BISL-BIHN
Flight info
| Callsign | N714DF |
|---|---|
| Flight time | 0h 26m |
| Altitude | 9000 |
| Route | BIHN |
| Aircraft | C210/L-SDGRY/S |
Departure
| Time | 2026-05-09 00:05 |
|---|---|
| Airport | Skaftafell Airport (BISL) |
Arrival
| Time | 2026-05-09 00:31 |
|---|---|
| Airport | Hornafjörður Airport (BIHN) |
| Time | Latitude | Longitude | Altitude | Speed | Heading |
|---|---|---|---|---|---|
| 2026-05-09 00:01 | 64.00257 | -16.94308 | 376 ft | 0 kts | 250° |
| 2026-05-09 00:02 | 64.00256 | -16.94315 | 379 ft | 3 kts | 257° |
| 2026-05-09 00:03 | 64.00234 | -16.94259 | 380 ft | 10 kts | 93° |
| 2026-05-09 00:03 | 64.00259 | -16.94062 | 378 ft | 15 kts | 15° |
| 2026-05-09 00:03 | 64.00206 | -16.94169 | 381 ft | 13 kts | 216° |
| 2026-05-09 00:03 | 64.00156 | -16.94087 | 381 ft | 13 kts | 128° |
| 2026-05-09 00:04 | 64.00115 | -16.93934 | 373 ft | 19 kts | 127° |
| 2026-05-09 00:04 | 64.00062 | -16.93899 | 371 ft | 1 kts | 326° |
| 2026-05-09 00:04 | 64.00101 | -16.93988 | 373 ft | 28 kts | 313° |
| 2026-05-09 00:04 | 64.00332 | -16.94500 | 399 ft | 61 kts | 319° |
| 2026-05-09 00:05 | 64.00696 | -16.95261 | 496 ft | 80 kts | 306° |
| 2026-05-09 00:05 | 64.01002 | -16.96534 | 524 ft | 98 kts | 291° |
| 2026-05-09 00:05 | 64.01033 | -16.97975 | 732 ft | 89 kts | 240° |
| 2026-05-09 00:05 | 64.00503 | -16.98741 | 924 ft | 98 kts | 185° |
| 2026-05-09 00:06 | 63.99771 | -16.98404 | 982 ft | 121 kts | 146° |
| 2026-05-09 00:06 | 63.99311 | -16.96732 | 1147 ft | 136 kts | 99° |
| 2026-05-09 00:06 | 63.99595 | -16.94642 | 1239 ft | 144 kts | 48° |
| 2026-05-09 00:06 | 64.00181 | -16.92818 | 1429 ft | 145 kts | 60° |
| 2026-05-09 00:07 | 64.00676 | -16.90852 | 1581 ft | 143 kts | 41° |
| 2026-05-09 00:07 | 64.01591 | -16.90322 | 1755 ft | 139 kts | 348° |
| 2026-05-09 00:07 | 64.02515 | -16.90489 | 1955 ft | 134 kts | 10° |
| 2026-05-09 00:07 | 64.03418 | -16.90024 | 2161 ft | 134 kts | 19° |
| 2026-05-09 00:08 | 64.04257 | -16.89133 | 2436 ft | 132 kts | 24° |
| 2026-05-09 00:08 | 64.05074 | -16.88245 | 2813 ft | 129 kts | 22° |
| 2026-05-09 00:08 | 64.05865 | -16.87317 | 3226 ft | 127 kts | 25° |
| 2026-05-09 00:08 | 64.06634 | -16.86361 | 3612 ft | 126 kts | 34° |
| 2026-05-09 00:09 | 64.07065 | -16.84587 | 3921 ft | 130 kts | 65° |
| 2026-05-09 00:09 | 64.07371 | -16.82662 | 4260 ft | 128 kts | 63° |
| 2026-05-09 00:09 | 64.07371 | -16.80630 | 4551 ft | 142 kts | 109° |
| 2026-05-09 00:09 | 64.06860 | -16.78697 | 4902 ft | 141 kts | 115° |
| 2026-05-09 00:10 | 64.06358 | -16.76778 | 5354 ft | 135 kts | 116° |
| 2026-05-09 00:10 | 64.05906 | -16.75021 | 5902 ft | 126 kts | 114° |
| 2026-05-09 00:10 | 64.05451 | -16.73286 | 6319 ft | 126 kts | 115° |
| 2026-05-09 00:10 | 64.05025 | -16.71611 | 6695 ft | 114 kts | 115° |
| 2026-05-09 00:11 | 64.04718 | -16.70116 | 6971 ft | 104 kts | 104° |
| 2026-05-09 00:11 | 64.04639 | -16.68438 | 7072 ft | 110 kts | 61° |
| 2026-05-09 00:11 | 64.04924 | -16.66775 | 7263 ft | 116 kts | 59° |
| 2026-05-09 00:11 | 64.05222 | -16.64997 | 7446 ft | 124 kts | 59° |
| 2026-05-09 00:12 | 64.05552 | -16.63092 | 7621 ft | 133 kts | 60° |
| 2026-05-09 00:12 | 64.05905 | -16.61085 | 7791 ft | 140 kts | 60° |
| 2026-05-09 00:12 | 64.06279 | -16.58967 | 7957 ft | 147 kts | 60° |
| 2026-05-09 00:12 | 64.06671 | -16.56748 | 8111 ft | 154 kts | 60° |
| 2026-05-09 00:13 | 64.07078 | -16.54438 | 8262 ft | 159 kts | 60° |
| 2026-05-09 00:13 | 64.07493 | -16.52080 | 8420 ft | 161 kts | 61° |
| 2026-05-09 00:13 | 64.07911 | -16.49706 | 8560 ft | 162 kts | 61° |
| 2026-05-09 00:13 | 64.08336 | -16.47294 | 8698 ft | 165 kts | 61° |
| 2026-05-09 00:14 | 64.08762 | -16.44866 | 8830 ft | 165 kts | 61° |
| 2026-05-09 00:14 | 64.09189 | -16.42432 | 8970 ft | 165 kts | 60° |
| 2026-05-09 00:14 | 64.09618 | -16.39988 | 9106 ft | 166 kts | 61° |
| 2026-05-09 00:14 | 64.10047 | -16.37537 | 9247 ft | 167 kts | 61° |
| 2026-05-09 00:15 | 64.10487 | -16.35031 | 9271 ft | 173 kts | 61° |
| 2026-05-09 00:15 | 64.10940 | -16.32439 | 9280 ft | 177 kts | 61° |
| 2026-05-09 00:15 | 64.11400 | -16.29801 | 9283 ft | 180 kts | 61° |
| 2026-05-09 00:15 | 64.11865 | -16.27130 | 9282 ft | 181 kts | 62° |
| 2026-05-09 00:16 | 64.12332 | -16.24444 | 9279 ft | 182 kts | 62° |
| 2026-05-09 00:16 | 64.12793 | -16.21785 | 9281 ft | 182 kts | 62° |
| 2026-05-09 00:16 | 64.13262 | -16.19087 | 9278 ft | 183 kts | 62° |
| 2026-05-09 00:16 | 64.13732 | -16.16372 | 9279 ft | 183 kts | 62° |
| 2026-05-09 00:17 | 64.14201 | -16.13661 | 9279 ft | 183 kts | 62° |
| 2026-05-09 00:17 | 64.14670 | -16.10945 | 9278 ft | 183 kts | 62° |
| 2026-05-09 00:17 | 64.15135 | -16.08247 | 9279 ft | 182 kts | 62° |
| 2026-05-09 00:17 | 64.15600 | -16.05552 | 9277 ft | 182 kts | 62° |
| 2026-05-09 00:18 | 64.16065 | -16.02850 | 9272 ft | 183 kts | 61° |
| 2026-05-09 00:18 | 64.16528 | -16.00156 | 9287 ft | 182 kts | 62° |
| 2026-05-09 00:18 | 64.16994 | -15.97444 | 9278 ft | 183 kts | 63° |
| 2026-05-09 00:18 | 64.17458 | -15.94735 | 9277 ft | 183 kts | 63° |
| 2026-05-09 00:19 | 64.17922 | -15.92022 | 9277 ft | 183 kts | 63° |
| 2026-05-09 00:19 | 64.18386 | -15.89304 | 9274 ft | 183 kts | 63° |
| 2026-05-09 00:19 | 64.18845 | -15.86611 | 9274 ft | 181 kts | 63° |
| 2026-05-09 00:19 | 64.19304 | -15.83918 | 9275 ft | 182 kts | 63° |
| 2026-05-09 00:20 | 64.19766 | -15.81205 | 9272 ft | 182 kts | 63° |
| 2026-05-09 00:20 | 64.20228 | -15.78488 | 9274 ft | 183 kts | 63° |
| 2026-05-09 00:20 | 64.20684 | -15.75797 | 9276 ft | 183 kts | 63° |
| 2026-05-09 00:20 | 64.21145 | -15.73077 | 9272 ft | 182 kts | 63° |
| 2026-05-09 00:21 | 64.21604 | -15.70364 | 9276 ft | 182 kts | 63° |
| 2026-05-09 00:21 | 64.22063 | -15.67646 | 9273 ft | 183 kts | 63° |
| 2026-05-09 00:21 | 64.22522 | -15.64924 | 9276 ft | 183 kts | 63° |
| 2026-05-09 00:21 | 64.22982 | -15.62195 | 9272 ft | 183 kts | 63° |
| 2026-05-09 00:22 | 64.23440 | -15.59467 | 9271 ft | 183 kts | 63° |
| 2026-05-09 00:22 | 64.23899 | -15.56737 | 9271 ft | 183 kts | 63° |
| 2026-05-09 00:22 | 64.24357 | -15.54005 | 9272 ft | 183 kts | 63° |
| 2026-05-09 00:22 | 64.24814 | -15.51276 | 9272 ft | 183 kts | 63° |
| 2026-05-09 00:23 | 64.25271 | -15.48544 | 9274 ft | 183 kts | 63° |
| 2026-05-09 00:23 | 64.25728 | -15.45808 | 9275 ft | 183 kts | 63° |
| 2026-05-09 00:23 | 64.26184 | -15.43071 | 9274 ft | 183 kts | 63° |
| 2026-05-09 00:23 | 64.26634 | -15.40373 | 9274 ft | 183 kts | 63° |
| 2026-05-09 00:24 | 64.27089 | -15.37636 | 9272 ft | 183 kts | 63° |
| 2026-05-09 00:24 | 64.27544 | -15.34896 | 9271 ft | 183 kts | 63° |
| 2026-05-09 00:24 | 64.27998 | -15.32158 | 9273 ft | 183 kts | 63° |
| 2026-05-09 00:24 | 64.28451 | -15.29416 | 9271 ft | 183 kts | 63° |
| 2026-05-09 00:25 | 64.28905 | -15.26673 | 9269 ft | 183 kts | 63° |
| 2026-05-09 00:25 | 64.29358 | -15.23929 | 9269 ft | 184 kts | 63° |
| 2026-05-09 00:25 | 64.29809 | -15.21186 | 9270 ft | 183 kts | 63° |
| 2026-05-09 00:25 | 64.30044 | -15.18267 | 8924 ft | 194 kts | 89° |
| 2026-05-09 00:26 | 64.29447 | -15.15599 | 8896 ft | 177 kts | 140° |
| 2026-05-09 00:26 | 64.28629 | -15.14487 | 8638 ft | 184 kts | 158° |
| 2026-05-09 00:26 | 64.27381 | -15.13742 | 8166 ft | 188 kts | 178° |
| 2026-05-09 00:26 | 64.26245 | -15.14412 | 7806 ft | 167 kts | 221° |
| 2026-05-09 00:27 | 64.25424 | -15.16509 | 6599 ft | 190 kts | 243° |
| 2026-05-09 00:27 | 64.25003 | -15.19112 | 6151 ft | 166 kts | 263° |
| 2026-05-09 00:27 | 64.24737 | -15.21689 | 5528 ft | 165 kts | 262° |
| 2026-05-09 00:27 | 64.24431 | -15.24242 | 4912 ft | 166 kts | 250° |
| 2026-05-09 00:28 | 64.23842 | -15.26417 | 4636 ft | 153 kts | 231° |
| 2026-05-09 00:28 | 64.23022 | -15.27825 | 4527 ft | 137 kts | 199° |
| 2026-05-09 00:28 | 64.22156 | -15.27649 | 4455 ft | 129 kts | 144° |
| 2026-05-09 00:28 | 64.21748 | -15.25707 | 3824 ft | 149 kts | 83° |
| 2026-05-09 00:29 | 64.22245 | -15.23912 | 3634 ft | 133 kts | 31° |
| 2026-05-09 00:29 | 64.23055 | -15.22729 | 3207 ft | 137 kts | 31° |
| 2026-05-09 00:29 | 64.23889 | -15.21774 | 2551 ft | 131 kts | 20° |
| 2026-05-09 00:29 | 64.24735 | -15.21236 | 1966 ft | 123 kts | 7° |
| 2026-05-09 00:30 | 64.25571 | -15.21069 | 1396 ft | 118 kts | 1° |
| 2026-05-09 00:30 | 64.26355 | -15.21299 | 854 ft | 112 kts | 358° |
| 2026-05-09 00:30 | 64.27063 | -15.21425 | 599 ft | 95 kts | 350° |
| 2026-05-09 00:30 | 64.27704 | -15.21769 | 299 ft | 92 kts | 349° |
| 2026-05-09 00:31 | 64.28317 | -15.22082 | 109 ft | 93 kts | 351° |
| 2026-05-09 00:31 | 64.28965 | -15.22417 | 22 ft | 96 kts | 347° |
| 2026-05-09 00:31 | 64.29554 | -15.22725 | 16 ft | 72 kts | 349° |
| 2026-05-09 00:31 | 64.29947 | -15.22925 | 11 ft | 41 kts | 349° |
| 2026-05-09 00:32 | 64.30128 | -15.23007 | 15 ft | 23 kts | 347° |
| 2026-05-09 00:32 | 64.30203 | -15.22978 | 19 ft | 6 kts | 72° |
| 2026-05-09 00:32 | 64.30213 | -15.22882 | 21 ft | 9 kts | 82° |
| 2026-05-09 00:32 | 64.30203 | -15.22779 | 23 ft | 5 kts | 159° |
| 2026-05-09 00:33 | 64.30185 | -15.22770 | 22 ft | 1 kts | 172° |
| 2026-05-09 00:33 | 64.30183 | -15.22769 | 22 ft | 0 kts | 152° |